sensor_id;sensor_type;location;lat;lon;timestamp;P1;durP1;ratioP1;P2;durP2;ratioP2
70981;SDS011;58640;51.320;9.456;2023-02-03T00:01:52;20.35;;;11.85;;
70981;SDS011;58640;51.320;9.456;2023-02-03T00:04:17;18.02;;;10.77;;
70981;SDS011;58640;51.320;9.456;2023-02-03T00:06:43;25.25;;;12.02;;
70981;SDS011;58640;51.320;9.456;2023-02-03T00:09:08;16.80;;;10.35;;
70981;SDS011;58640;51.320;9.456;2023-02-03T00:11:34;16.40;;;11.15;;
70981;SDS011;58640;51.320;9.456;2023-02-03T00:13:59;17.98;;;10.88;;
70981;SDS011;58640;51.320;9.456;2023-02-03T00:16:24;18.65;;;11.35;;
70981;SDS011;58640;51.320;9.456;2023-02-03T00:18:50;17.65;;;10.13;;
70981;SDS011;58640;51.320;9.456;2023-02-03T00:21:15;15.63;;;10.45;;
70981;SDS011;58640;51.320;9.456;2023-02-03T00:23:41;14.80;;;9.85;;
70981;SDS011;58640;51.320;9.456;2023-02-03T00:26:12;15.48;;;9.45;;
70981;SDS011;58640;51.320;9.456;2023-02-03T00:28:39;14.18;;;9.68;;
70981;SDS011;58640;51.320;9.456;2023-02-03T00:31:05;13.68;;;9.38;;
70981;SDS011;58640;51.320;9.456;2023-02-03T00:33:37;14.88;;;9.70;;
70981;SDS011;58640;51.320;9.456;2023-02-03T00:36:03;13.95;;;9.23;;
70981;SDS011;58640;51.320;9.456;2023-02-03T00:38:32;18.27;;;9.38;;
70981;SDS011;58640;51.320;9.456;2023-02-03T00:40:57;15.98;;;9.63;;
70981;SDS011;58640;51.320;9.456;2023-02-03T00:43:22;13.73;;;9.93;;
70981;SDS011;58640;51.320;9.456;2023-02-03T00:45:48;14.50;;;9.02;;
70981;SDS011;58640;51.320;9.456;2023-02-03T00:48:13;13.05;;;8.57;;
70981;SDS011;58640;51.320;9.456;2023-02-03T00:50:39;11.80;;;7.57;;
70981;SDS011;58640;51.320;9.456;2023-02-03T00:53:04;10.00;;;6.78;;
70981;SDS011;58640;51.320;9.456;2023-02-03T00:55:30;9.82;;;6.18;;
70981;SDS011;58640;51.320;9.456;2023-02-03T00:57:55;8.70;;;5.38;;
70981;SDS011;58640;51.320;9.456;2023-02-03T01:00:21;8.40;;;6.22;;
70981;SDS011;58640;51.320;9.456;2023-02-03T01:02:46;7.70;;;5.50;;
70981;SDS011;58640;51.320;9.456;2023-02-03T01:05:12;8.30;;;5.43;;
70981;SDS011;58640;51.320;9.456;2023-02-03T01:07:37;8.88;;;5.28;;
70981;SDS011;58640;51.320;9.456;2023-02-03T01:10:03;9.65;;;6.18;;
70981;SDS011;58640;51.320;9.456;2023-02-03T01:12:29;9.70;;;6.20;;
70981;SDS011;58640;51.320;9.456;2023-02-03T01:14:55;9.18;;;6.35;;
70981;SDS011;58640;51.320;9.456;2023-02-03T01:17:20;9.40;;;6.30;;
70981;SDS011;58640;51.320;9.456;2023-02-03T01:19:46;9.73;;;6.80;;
70981;SDS011;58640;51.320;9.456;2023-02-03T01:22:12;9.90;;;7.10;;
70981;SDS011;58640;51.320;9.456;2023-02-03T01:24:37;7.28;;;6.18;;
70981;SDS011;58640;51.320;9.456;2023-02-03T01:27:03;11.48;;;6.85;;
70981;SDS011;58640;51.320;9.456;2023-02-03T01:29:30;11.45;;;7.05;;
70981;SDS011;58640;51.320;9.456;2023-02-03T01:31:55;9.73;;;7.53;;
70981;SDS011;58640;51.320;9.456;2023-02-03T01:34:21;10.35;;;6.90;;
70981;SDS011;58640;51.320;9.456;2023-02-03T01:36:46;8.88;;;6.63;;
70981;SDS011;58640;51.320;9.456;2023-02-03T01:39:11;8.45;;;6.47;;
70981;SDS011;58640;51.320;9.456;2023-02-03T01:41:37;11.80;;;6.20;;
70981;SDS011;58640;51.320;9.456;2023-02-03T01:47:03;7.68;;;6.53;;
70981;SDS011;58640;51.320;9.456;2023-02-03T01:52:27;9.23;;;6.05;;
70981;SDS011;58640;51.320;9.456;2023-02-03T01:54:53;9.70;;;6.30;;
70981;SDS011;58640;51.320;9.456;2023-02-03T01:57:24;8.88;;;6.93;;
70981;SDS011;58640;51.320;9.456;2023-02-03T01:59:54;9.32;;;6.28;;
70981;SDS011;58640;51.320;9.456;2023-02-03T02:02:23;9.15;;;6.10;;
70981;SDS011;58640;51.320;9.456;2023-02-03T02:07:27;9.30;;;6.82;;
70981;SDS011;58640;51.320;9.456;2023-02-03T02:09:53;13.02;;;7.05;;
70981;SDS011;58640;51.320;9.456;2023-02-03T02:12:20;11.50;;;7.00;;
70981;SDS011;58640;51.320;9.456;2023-02-03T02:14:45;10.95;;;7.07;;
70981;SDS011;58640;51.320;9.456;2023-02-03T02:17:19;12.35;;;7.65;;
70981;SDS011;58640;51.320;9.456;2023-02-03T02:32:16;9.23;;;6.70;;
70981;SDS011;58640;51.320;9.456;2023-02-03T02:37:37;12.30;;;7.75;;
70981;SDS011;58640;51.320;9.456;2023-02-03T02:42:59;14.68;;;7.53;;
70981;SDS011;58640;51.320;9.456;2023-02-03T02:45:36;12.57;;;7.25;;
70981;SDS011;58640;51.320;9.456;2023-02-03T02:48:05;10.85;;;7.63;;
70981;SDS011;58640;51.320;9.456;2023-02-03T02:50:38;11.13;;;8.15;;
70981;SDS011;58640;51.320;9.456;2023-02-03T02:53:07;13.10;;;7.72;;
70981;SDS011;58640;51.320;9.456;2023-02-03T02:55:35;14.00;;;7.25;;
70981;SDS011;58640;51.320;9.456;2023-02-03T02:58:07;14.57;;;7.70;;
70981;SDS011;58640;51.320;9.456;2023-02-03T03:00:35;11.15;;;8.25;;
70981;SDS011;58640;51.320;9.456;2023-02-03T03:03:20;12.00;;;7.72;;
70981;SDS011;58640;51.320;9.456;2023-02-03T03:06:09;11.38;;;7.55;;
70981;SDS011;58640;51.320;9.456;2023-02-03T03:11:03;10.65;;;6.82;;
70981;SDS011;58640;51.320;9.456;2023-02-03T03:13:31;10.00;;;7.30;;
70981;SDS011;58640;51.320;9.456;2023-02-03T03:16:01;15.68;;;7.22;;
70981;SDS011;58640;51.320;9.456;2023-02-03T03:18:35;9.20;;;6.40;;
70981;SDS011;58640;51.320;9.456;2023-02-03T03:21:07;12.57;;;8.95;;
70981;SDS011;58640;51.320;9.456;2023-02-03T03:23:38;13.63;;;6.88;;
70981;SDS011;58640;51.320;9.456;2023-02-03T03:26:17;8.88;;;5.90;;
70981;SDS011;58640;51.320;9.456;2023-02-03T03:29:06;10.77;;;6.45;;
70981;SDS011;58640;51.320;9.456;2023-02-03T03:31:39;10.00;;;6.28;;
70981;SDS011;58640;51.320;9.456;2023-02-03T03:34:07;7.43;;;5.63;;
70981;SDS011;58640;51.320;9.456;2023-02-03T03:36:38;8.52;;;5.82;;
70981;SDS011;58640;51.320;9.456;2023-02-03T03:39:12;10.82;;;5.47;;
70981;SDS011;58640;51.320;9.456;2023-02-03T03:45:05;8.50;;;4.90;;
70981;SDS011;58640;51.320;9.456;2023-02-03T03:47:39;6.60;;;4.70;;
70981;SDS011;58640;51.320;9.456;2023-02-03T03:50:11;6.28;;;4.78;;
70981;SDS011;58640;51.320;9.456;2023-02-03T03:52:39;6.10;;;4.40;;
70981;SDS011;58640;51.320;9.456;2023-02-03T03:55:08;7.25;;;4.55;;
70981;SDS011;58640;51.320;9.456;2023-02-03T03:57:55;8.20;;;4.38;;
70981;SDS011;58640;51.320;9.456;2023-02-03T04:00:26;8.18;;;5.00;;
70981;SDS011;58640;51.320;9.456;2023-02-03T04:02:55;4.72;;;4.20;;
70981;SDS011;58640;51.320;9.456;2023-02-03T04:05:24;12.02;;;4.95;;
70981;SDS011;58640;51.320;9.456;2023-02-03T04:07:50;7.10;;;5.28;;
70981;SDS011;58640;51.320;9.456;2023-02-03T04:10:21;5.47;;;4.38;;
70981;SDS011;58640;51.320;9.456;2023-02-03T04:12:58;7.15;;;4.57;;
70981;SDS011;58640;51.320;9.456;2023-02-03T04:15:24;8.57;;;4.55;;
70981;SDS011;58640;51.320;9.456;2023-02-03T04:17:50;5.10;;;4.45;;
70981;SDS011;58640;51.320;9.456;2023-02-03T04:20:16;6.95;;;5.15;;
70981;SDS011;58640;51.320;9.456;2023-02-03T04:22:41;10.25;;;4.57;;
70981;SDS011;58640;51.320;9.456;2023-02-03T04:25:07;9.82;;;5.15;;
70981;SDS011;58640;51.320;9.456;2023-02-03T04:27:33;7.97;;;4.75;;
70981;SDS011;58640;51.320;9.456;2023-02-03T04:29:59;6.47;;;4.57;;
70981;SDS011;58640;51.320;9.456;2023-02-03T04:32:25;5.28;;;4.07;;
70981;SDS011;58640;51.320;9.456;2023-02-03T04:34:50;6.43;;;4.05;;
70981;SDS011;58640;51.320;9.456;2023-02-03T04:37:16;4.88;;;3.92;;
70981;SDS011;58640;51.320;9.456;2023-02-03T04:39:41;10.38;;;4.65;;
70981;SDS011;58640;51.320;9.456;2023-02-03T04:42:06;6.25;;;4.20;;
70981;SDS011;58640;51.320;9.456;2023-02-03T04:44:32;5.72;;;4.07;;
70981;SDS011;58640;51.320;9.456;2023-02-03T04:46:57;7.25;;;4.43;;
70981;SDS011;58640;51.320;9.456;2023-02-03T04:49:22;11.70;;;5.00;;
70981;SDS011;58640;51.320;9.456;2023-02-03T04:51:48;4.93;;;4.15;;
70981;SDS011;58640;51.320;9.456;2023-02-03T04:54:14;6.97;;;4.15;;
70981;SDS011;58640;51.320;9.456;2023-02-03T04:56:39;8.60;;;4.43;;
70981;SDS011;58640;51.320;9.456;2023-02-03T04:59:05;8.75;;;4.57;;
70981;SDS011;58640;51.320;9.456;2023-02-03T05:01:30;8.82;;;4.22;;
70981;SDS011;58640;51.320;9.456;2023-02-03T05:03:55;9.13;;;4.70;;
70981;SDS011;58640;51.320;9.456;2023-02-03T05:06:24;5.95;;;4.40;;
70981;SDS011;58640;51.320;9.456;2023-02-03T05:08:51;7.07;;;4.22;;
70981;SDS011;58640;51.320;9.456;2023-02-03T05:11:17;4.97;;;3.53;;
70981;SDS011;58640;51.320;9.456;2023-02-03T05:13:42;7.20;;;4.05;;
70981;SDS011;58640;51.320;9.456;2023-02-03T05:16:07;5.30;;;3.67;;
70981;SDS011;58640;51.320;9.456;2023-02-03T05:18:33;5.93;;;4.38;;
70981;SDS011;58640;51.320;9.456;2023-02-03T05:20:58;5.32;;;4.15;;
70981;SDS011;58640;51.320;9.456;2023-02-03T05:23:24;7.93;;;4.40;;
70981;SDS011;58640;51.320;9.456;2023-02-03T05:25:49;6.32;;;4.47;;
70981;SDS011;58640;51.320;9.456;2023-02-03T05:28:14;7.05;;;4.88;;
70981;SDS011;58640;51.320;9.456;2023-02-03T05:30:42;4.70;;;4.10;;
70981;SDS011;58640;51.320;9.456;2023-02-03T05:33:08;7.60;;;3.67;;
70981;SDS011;58640;51.320;9.456;2023-02-03T05:35:33;4.22;;;3.55;;
70981;SDS011;58640;51.320;9.456;2023-02-03T05:37:58;4.13;;;3.17;;
70981;SDS011;58640;51.320;9.456;2023-02-03T05:40:24;6.82;;;3.15;;
70981;SDS011;58640;51.320;9.456;2023-02-03T05:43:08;3.97;;;3.08;;
70981;SDS011;58640;51.320;9.456;2023-02-03T05:45:34;3.30;;;2.80;;
70981;SDS011;58640;51.320;9.456;2023-02-03T05:47:59;6.30;;;2.97;;
70981;SDS011;58640;51.320;9.456;2023-02-03T05:50:26;3.15;;;2.63;;
70981;SDS011;58640;51.320;9.456;2023-02-03T05:52:57;4.03;;;2.78;;
70981;SDS011;58640;51.320;9.456;2023-02-03T05:55:22;4.93;;;3.40;;
70981;SDS011;58640;51.320;9.456;2023-02-03T05:57:48;5.75;;;3.10;;
70981;SDS011;58640;51.320;9.456;2023-02-03T06:00:13;3.30;;;2.85;;
70981;SDS011;58640;51.320;9.456;2023-02-03T06:02:39;9.73;;;5.05;;
70981;SDS011;58640;51.320;9.456;2023-02-03T06:05:04;6.28;;;3.38;;
70981;SDS011;58640;51.320;9.456;2023-02-03T06:07:30;4.68;;;2.63;;
70981;SDS011;58640;51.320;9.456;2023-02-03T06:09:55;4.32;;;3.53;;
70981;SDS011;58640;51.320;9.456;2023-02-03T06:12:20;6.45;;;4.05;;
70981;SDS011;58640;51.320;9.456;2023-02-03T06:14:46;5.25;;;3.33;;
70981;SDS011;58640;51.320;9.456;2023-02-03T06:17:11;3.83;;;3.42;;
70981;SDS011;58640;51.320;9.456;2023-02-03T06:19:37;5.30;;;3.45;;
70981;SDS011;58640;51.320;9.456;2023-02-03T06:22:02;6.95;;;3.03;;
70981;SDS011;58640;51.320;9.456;2023-02-03T06:24:27;5.40;;;3.13;;
70981;SDS011;58640;51.320;9.456;2023-02-03T06:26:53;7.82;;;3.67;;
70981;SDS011;58640;51.320;9.456;2023-02-03T06:29:18;7.35;;;3.42;;
70981;SDS011;58640;51.320;9.456;2023-02-03T06:31:43;5.00;;;3.45;;
70981;SDS011;58640;51.320;9.456;2023-02-03T06:34:09;5.18;;;3.08;;
70981;SDS011;58640;51.320;9.456;2023-02-03T06:36:34;6.40;;;2.92;;
70981;SDS011;58640;51.320;9.456;2023-02-03T06:38:59;5.13;;;2.63;;
70981;SDS011;58640;51.320;9.456;2023-02-03T06:41:25;4.85;;;2.92;;
70981;SDS011;58640;51.320;9.456;2023-02-03T06:43:54;4.82;;;2.88;;
70981;SDS011;58640;51.320;9.456;2023-02-03T06:46:19;4.63;;;2.88;;
70981;SDS011;58640;51.320;9.456;2023-02-03T06:48:45;4.95;;;2.92;;
70981;SDS011;58640;51.320;9.456;2023-02-03T06:51:10;3.85;;;2.85;;
70981;SDS011;58640;51.320;9.456;2023-02-03T06:53:35;6.28;;;2.88;;
70981;SDS011;58640;51.320;9.456;2023-02-03T06:56:01;5.50;;;2.47;;
70981;SDS011;58640;51.320;9.456;2023-02-03T06:58:27;3.15;;;2.63;;
70981;SDS011;58640;51.320;9.456;2023-02-03T07:00:56;6.43;;;2.47;;
70981;SDS011;58640;51.320;9.456;2023-02-03T07:03:21;2.75;;;2.38;;
70981;SDS011;58640;51.320;9.456;2023-02-03T07:05:47;6.85;;;2.67;;
70981;SDS011;58640;51.320;9.456;2023-02-03T07:08:12;5.20;;;3.40;;
70981;SDS011;58640;51.320;9.456;2023-02-03T07:10:39;3.42;;;2.35;;
70981;SDS011;58640;51.320;9.456;2023-02-03T07:13:05;3.97;;;2.65;;
70981;SDS011;58640;51.320;9.456;2023-02-03T07:15:31;6.22;;;3.10;;
70981;SDS011;58640;51.320;9.456;2023-02-03T07:17:57;3.83;;;2.50;;
70981;SDS011;58640;51.320;9.456;2023-02-03T07:20:22;6.15;;;2.60;;
70981;SDS011;58640;51.320;9.456;2023-02-03T07:22:52;4.60;;;2.95;;
70981;SDS011;58640;51.320;9.456;2023-02-03T07:25:18;5.38;;;3.30;;
70981;SDS011;58640;51.320;9.456;2023-02-03T07:27:44;6.95;;;3.55;;
70981;SDS011;58640;51.320;9.456;2023-02-03T07:30:09;4.28;;;2.70;;
70981;SDS011;58640;51.320;9.456;2023-02-03T07:32:35;5.63;;;2.80;;
70981;SDS011;58640;51.320;9.456;2023-02-03T07:35:00;5.93;;;2.95;;
70981;SDS011;58640;51.320;9.456;2023-02-03T07:37:26;5.22;;;3.47;;
70981;SDS011;58640;51.320;9.456;2023-02-03T07:39:51;5.15;;;2.97;;
70981;SDS011;58640;51.320;9.456;2023-02-03T07:42:17;4.97;;;2.63;;
70981;SDS011;58640;51.320;9.456;2023-02-03T07:44:42;4.03;;;2.70;;
70981;SDS011;58640;51.320;9.456;2023-02-03T07:47:07;4.82;;;3.50;;
70981;SDS011;58640;51.320;9.456;2023-02-03T07:49:33;5.22;;;3.53;;
70981;SDS011;58640;51.320;9.456;2023-02-03T07:51:58;6.63;;;3.00;;
70981;SDS011;58640;51.320;9.456;2023-02-03T07:54:23;4.97;;;2.58;;
70981;SDS011;58640;51.320;9.456;2023-02-03T07:56:49;2.75;;;2.50;;
70981;SDS011;58640;51.320;9.456;2023-02-03T07:59:15;2.75;;;2.45;;
70981;SDS011;58640;51.320;9.456;2023-02-03T08:01:41;6.03;;;2.70;;
70981;SDS011;58640;51.320;9.456;2023-02-03T08:04:06;2.90;;;2.40;;
70981;SDS011;58640;51.320;9.456;2023-02-03T08:06:32;2.25;;;1.98;;
70981;SDS011;58640;51.320;9.456;2023-02-03T08:08:58;2.40;;;2.20;;
70981;SDS011;58640;51.320;9.456;2023-02-03T08:11:23;2.78;;;2.03;;
70981;SDS011;58640;51.320;9.456;2023-02-03T08:13:49;2.38;;;1.90;;
70981;SDS011;58640;51.320;9.456;2023-02-03T08:16:15;3.65;;;2.20;;
70981;SDS011;58640;51.320;9.456;2023-02-03T08:18:40;3.40;;;1.73;;
70981;SDS011;58640;51.320;9.456;2023-02-03T08:21:05;2.38;;;1.73;;
70981;SDS011;58640;51.320;9.456;2023-02-03T08:23:30;1.70;;;1.60;;
70981;SDS011;58640;51.320;9.456;2023-02-03T08:25:56;1.95;;;1.55;;
70981;SDS011;58640;51.320;9.456;2023-02-03T08:28:21;4.32;;;1.77;;
70981;SDS011;58640;51.320;9.456;2023-02-03T08:30:47;3.38;;;2.97;;
70981;SDS011;58640;51.320;9.456;2023-02-03T08:33:12;2.38;;;2.05;;
70981;SDS011;58640;51.320;9.456;2023-02-03T08:35:37;3.15;;;2.00;;
70981;SDS011;58640;51.320;9.456;2023-02-03T08:38:04;1.83;;;1.48;;
70981;SDS011;58640;51.320;9.456;2023-02-03T08:40:29;1.70;;;1.60;;
70981;SDS011;58640;51.320;9.456;2023-02-03T08:42:54;1.77;;;1.60;;
70981;SDS011;58640;51.320;9.456;2023-02-03T08:45:20;1.27;;;1.10;;
70981;SDS011;58640;51.320;9.456;2023-02-03T08:47:45;3.60;;;1.33;;
70981;SDS011;58640;51.320;9.456;2023-02-03T08:50:10;2.57;;;1.50;;
70981;SDS011;58640;51.320;9.456;2023-02-03T08:52:37;1.65;;;1.55;;
70981;SDS011;58640;51.320;9.456;2023-02-03T08:55:03;1.30;;;1.20;;
70981;SDS011;58640;51.320;9.456;2023-02-03T08:57:35;2.38;;;1.55;;
70981;SDS011;58640;51.320;9.456;2023-02-03T09:00:02;0.90;;;0.90;;
70981;SDS011;58640;51.320;9.456;2023-02-03T09:02:29;1.65;;;1.02;;
70981;SDS011;58640;51.320;9.456;2023-02-03T09:04:54;1.98;;;1.10;;
70981;SDS011;58640;51.320;9.456;2023-02-03T09:07:20;1.52;;;1.10;;
70981;SDS011;58640;51.320;9.456;2023-02-03T09:09:46;3.00;;;1.50;;
70981;SDS011;58640;51.320;9.456;2023-02-03T09:12:11;2.65;;;1.50;;
70981;SDS011;58640;51.320;9.456;2023-02-03T09:14:37;1.42;;;1.08;;
70981;SDS011;58640;51.320;9.456;2023-02-03T09:17:03;1.73;;;1.20;;
70981;SDS011;58640;51.320;9.456;2023-02-03T09:19:30;1.27;;;1.17;;
70981;SDS011;58640;51.320;9.456;2023-02-03T09:21:55;1.35;;;1.02;;
70981;SDS011;58640;51.320;9.456;2023-02-03T09:24:21;1.23;;;1.10;;
70981;SDS011;58640;51.320;9.456;2023-02-03T09:26:47;1.15;;;1.15;;
70981;SDS011;58640;51.320;9.456;2023-02-03T09:29:12;4.18;;;1.40;;
70981;SDS011;58640;51.320;9.456;2023-02-03T09:31:38;2.58;;;1.98;;
70981;SDS011;58640;51.320;9.456;2023-02-03T09:34:03;1.10;;;1.10;;
70981;SDS011;58640;51.320;9.456;2023-02-03T09:36:28;2.28;;;1.23;;
70981;SDS011;58640;51.320;9.456;2023-02-03T09:38:55;1.27;;;1.13;;
70981;SDS011;58640;51.320;9.456;2023-02-03T09:41:25;1.17;;;1.15;;
70981;SDS011;58640;51.320;9.456;2023-02-03T09:47:10;1.30;;;1.30;;
70981;SDS011;58640;51.320;9.456;2023-02-03T09:49:45;1.30;;;1.08;;
70981;SDS011;58640;51.320;9.456;2023-02-03T09:52:22;3.72;;;1.58;;
70981;SDS011;58640;51.320;9.456;2023-02-03T09:55:49;2.45;;;1.05;;
70981;SDS011;58640;51.320;9.456;2023-02-03T09:57:54;1.42;;;1.33;;
70981;SDS011;58640;51.320;9.456;2023-02-03T10:01:01;1.98;;;1.30;;
70981;SDS011;58640;51.320;9.456;2023-02-03T10:03:29;1.20;;;1.13;;
70981;SDS011;58640;51.320;9.456;2023-02-03T10:06:10;1.20;;;1.20;;
70981;SDS011;58640;51.320;9.456;2023-02-03T10:14:21;1.80;;;1.27;;
70981;SDS011;58640;51.320;9.456;2023-02-03T10:19:54;2.25;;;1.17;;
70981;SDS011;58640;51.320;9.456;2023-02-03T10:22:25;2.05;;;1.35;;
70981;SDS011;58640;51.320;9.456;2023-02-03T10:24:59;1.60;;;1.50;;
70981;SDS011;58640;51.320;9.456;2023-02-03T10:27:31;1.23;;;1.20;;
70981;SDS011;58640;51.320;9.456;2023-02-03T10:32:41;1.58;;;1.20;;
70981;SDS011;58640;51.320;9.456;2023-02-03T10:35:10;2.00;;;1.45;;
70981;SDS011;58640;51.320;9.456;2023-02-03T10:37:40;1.67;;;1.40;;
70981;SDS011;58640;51.320;9.456;2023-02-03T10:40:12;2.75;;;1.88;;
70981;SDS011;58640;51.320;9.456;2023-02-03T10:42:39;1.70;;;1.60;;
70981;SDS011;58640;51.320;9.456;2023-02-03T10:45:25;1.70;;;1.60;;
70981;SDS011;58640;51.320;9.456;2023-02-03T10:47:51;3.63;;;2.10;;
70981;SDS011;58640;51.320;9.456;2023-02-03T10:50:20;2.95;;;1.52;;
70981;SDS011;58640;51.320;9.456;2023-02-03T10:52:47;1.58;;;1.48;;
70981;SDS011;58640;51.320;9.456;2023-02-03T10:57:53;1.40;;;1.30;;
70981;SDS011;58640;51.320;9.456;2023-02-03T11:00:23;1.58;;;1.48;;
70981;SDS011;58640;51.320;9.456;2023-02-03T11:02:57;2.55;;;1.50;;
70981;SDS011;58640;51.320;9.456;2023-02-03T11:05:28;2.38;;;1.52;;
70981;SDS011;58640;51.320;9.456;2023-02-03T11:07:53;2.40;;;1.73;;
70981;SDS011;58640;51.320;9.456;2023-02-03T11:13:24;6.50;;;3.28;;
70981;SDS011;58640;51.320;9.456;2023-02-03T11:15:58;1.60;;;1.50;;
70981;SDS011;58640;51.320;9.456;2023-02-03T11:18:26;1.85;;;1.75;;
70981;SDS011;58640;51.320;9.456;2023-02-03T11:20:56;4.97;;;1.48;;
70981;SDS011;58640;51.320;9.456;2023-02-03T11:23:22;2.00;;;1.90;;
70981;SDS011;58640;51.320;9.456;2023-02-03T11:25:48;2.08;;;1.88;;
70981;SDS011;58640;51.320;9.456;2023-02-03T11:28:13;4.00;;;1.83;;
70981;SDS011;58640;51.320;9.456;2023-02-03T11:30:39;2.17;;;2.05;;
70981;SDS011;58640;51.320;9.456;2023-02-03T11:33:14;2.22;;;2.03;;
70981;SDS011;58640;51.320;9.456;2023-02-03T11:35:53;7.82;;;2.25;;
70981;SDS011;58640;51.320;9.456;2023-02-03T11:41:40;4.05;;;3.15;;
70981;SDS011;58640;51.320;9.456;2023-02-03T11:44:15;2.95;;;2.38;;
70981;SDS011;58640;51.320;9.456;2023-02-03T11:46:46;5.18;;;2.30;;
70981;SDS011;58640;51.320;9.456;2023-02-03T11:52:17;2.95;;;2.22;;
70981;SDS011;58640;51.320;9.456;2023-02-03T11:54:49;4.00;;;2.40;;
70981;SDS011;58640;51.320;9.456;2023-02-03T11:57:34;3.05;;;2.50;;
70981;SDS011;58640;51.320;9.456;2023-02-03T12:00:46;2.67;;;2.45;;
70981;SDS011;58640;51.320;9.456;2023-02-03T12:06:12;6.18;;;2.88;;
70981;SDS011;58640;51.320;9.456;2023-02-03T12:20:05;2.58;;;2.38;;
70981;SDS011;58640;51.320;9.456;2023-02-03T12:22:47;3.45;;;2.75;;
70981;SDS011;58640;51.320;9.456;2023-02-03T12:25:40;5.82;;;2.50;;
70981;SDS011;58640;51.320;9.456;2023-02-03T12:31:14;2.47;;;1.90;;
70981;SDS011;58640;51.320;9.456;2023-02-03T12:33:55;3.00;;;2.15;;
70981;SDS011;58640;51.320;9.456;2023-02-03T12:36:29;3.00;;;1.90;;
70981;SDS011;58640;51.320;9.456;2023-02-03T12:41:57;2.83;;;1.90;;
70981;SDS011;58640;51.320;9.456;2023-02-03T12:44:31;3.60;;;1.90;;
70981;SDS011;58640;51.320;9.456;2023-02-03T12:47:17;2.42;;;1.63;;
70981;SDS011;58640;51.320;9.456;2023-02-03T12:49:53;3.40;;;1.90;;
70981;SDS011;58640;51.320;9.456;2023-02-03T12:52:29;3.35;;;2.25;;
70981;SDS011;58640;51.320;9.456;2023-02-03T12:55:02;5.50;;;2.92;;
70981;SDS011;58640;51.320;9.456;2023-02-03T12:57:57;2.28;;;2.08;;
70981;SDS011;58640;51.320;9.456;2023-02-03T13:03:16;2.92;;;1.65;;
70981;SDS011;58640;51.320;9.456;2023-02-03T13:06:14;3.63;;;1.77;;
70981;SDS011;58640;51.320;9.456;2023-02-03T13:11:35;1.23;;;1.20;;
70981;SDS011;58640;51.320;9.456;2023-02-03T13:16:44;1.48;;;1.20;;
70981;SDS011;58640;51.320;9.456;2023-02-03T13:19:23;3.75;;;1.50;;
70981;SDS011;58640;51.320;9.456;2023-02-03T13:21:51;1.98;;;1.27;;
70981;SDS011;58640;51.320;9.456;2023-02-03T13:24:17;1.10;;;0.77;;
70981;SDS011;58640;51.320;9.456;2023-02-03T13:27:02;0.80;;;0.80;;
70981;SDS011;58640;51.320;9.456;2023-02-03T13:38:00;8.15;;;1.80;;
70981;SDS011;58640;51.320;9.456;2023-02-03T13:43:21;8.68;;;1.92;;
70981;SDS011;58640;51.320;9.456;2023-02-03T13:45:52;12.05;;;2.15;;
70981;SDS011;58640;51.320;9.456;2023-02-03T13:48:22;14.57;;;3.08;;
70981;SDS011;58640;51.320;9.456;2023-02-03T13:51:00;21.80;;;4.35;;
70981;SDS011;58640;51.320;9.456;2023-02-03T13:53:33;12.60;;;2.85;;
70981;SDS011;58640;51.320;9.456;2023-02-03T13:56:07;18.50;;;3.72;;
70981;SDS011;58640;51.320;9.456;2023-02-03T13:58:41;11.77;;;2.80;;
70981;SDS011;58640;51.320;9.456;2023-02-03T14:01:25;8.80;;;2.55;;
70981;SDS011;58640;51.320;9.456;2023-02-03T14:03:54;16.60;;;3.00;;
70981;SDS011;58640;51.320;9.456;2023-02-03T14:19:59;11.07;;;2.80;;
70981;SDS011;58640;51.320;9.456;2023-02-03T14:22:45;15.93;;;3.88;;
70981;SDS011;58640;51.320;9.456;2023-02-03T14:25:10;22.58;;;2.80;;
70981;SDS011;58640;51.320;9.456;2023-02-03T14:27:36;13.13;;;2.28;;
70981;SDS011;58640;51.320;9.456;2023-02-03T14:30:11;17.00;;;2.72;;
70981;SDS011;58640;51.320;9.456;2023-02-03T14:32:47;13.15;;;2.70;;
70981;SDS011;58640;51.320;9.456;2023-02-03T14:38:04;9.88;;;3.70;;
70981;SDS011;58640;51.320;9.456;2023-02-03T14:43:27;13.00;;;2.42;;
70981;SDS011;58640;51.320;9.456;2023-02-03T14:54:57;9.95;;;2.35;;
70981;SDS011;58640;51.320;9.456;2023-02-03T14:57:45;15.85;;;2.83;;
70981;SDS011;58640;51.320;9.456;2023-02-03T15:07:56;18.33;;;4.47;;
70981;SDS011;58640;51.320;9.456;2023-02-03T15:12:54;18.58;;;2.83;;
70981;SDS011;58640;51.320;9.456;2023-02-03T15:15:25;18.17;;;2.88;;
70981;SDS011;58640;51.320;9.456;2023-02-03T15:17:56;14.07;;;2.30;;
70981;SDS011;58640;51.320;9.456;2023-02-03T15:22:57;25.90;;;2.88;;
70981;SDS011;58640;51.320;9.456;2023-02-03T15:25:28;12.82;;;2.38;;
70981;SDS011;58640;51.320;9.456;2023-02-03T15:28:08;16.60;;;3.10;;
70981;SDS011;58640;51.320;9.456;2023-02-03T15:30:40;14.15;;;2.70;;
70981;SDS011;58640;51.320;9.456;2023-02-03T15:33:07;13.35;;;2.25;;
70981;SDS011;58640;51.320;9.456;2023-02-03T15:35:37;15.93;;;2.42;;
70981;SDS011;58640;51.320;9.456;2023-02-03T15:38:06;15.10;;;2.10;;
70981;SDS011;58640;51.320;9.456;2023-02-03T15:40:50;14.52;;;2.28;;
70981;SDS011;58640;51.320;9.456;2023-02-03T15:43:38;13.50;;;2.53;;
70981;SDS011;58640;51.320;9.456;2023-02-03T15:46:13;17.77;;;2.50;;
70981;SDS011;58640;51.320;9.456;2023-02-03T15:51:31;10.05;;;2.33;;
70981;SDS011;58640;51.320;9.456;2023-02-03T15:54:02;17.77;;;2.42;;
70981;SDS011;58640;51.320;9.456;2023-02-03T15:56:45;13.30;;;2.30;;
70981;SDS011;58640;51.320;9.456;2023-02-03T15:59:28;15.52;;;2.25;;
70981;SDS011;58640;51.320;9.456;2023-02-03T16:01:55;14.35;;;2.67;;
70981;SDS011;58640;51.320;9.456;2023-02-03T16:04:23;15.85;;;3.05;;
70981;SDS011;58640;51.320;9.456;2023-02-03T16:06:49;10.18;;;2.63;;
70981;SDS011;58640;51.320;9.456;2023-02-03T16:09:33;11.95;;;2.50;;
70981;SDS011;58640;51.320;9.456;2023-02-03T16:12:11;14.27;;;2.28;;
70981;SDS011;58640;51.320;9.456;2023-02-03T16:14:45;12.40;;;3.67;;
70981;SDS011;58640;51.320;9.456;2023-02-03T16:17:20;15.05;;;2.72;;
70981;SDS011;58640;51.320;9.456;2023-02-03T16:19:46;17.05;;;2.55;;
70981;SDS011;58640;51.320;9.456;2023-02-03T16:22:28;17.10;;;2.80;;
70981;SDS011;58640;51.320;9.456;2023-02-03T16:24:56;21.15;;;3.05;;
70981;SDS011;58640;51.320;9.456;2023-02-03T16:29:53;15.60;;;2.97;;
70981;SDS011;58640;51.320;9.456;2023-02-03T16:35:56;21.75;;;3.80;;
70981;SDS011;58640;51.320;9.456;2023-02-03T16:38:47;14.57;;;2.88;;
70981;SDS011;58640;51.320;9.456;2023-02-03T16:41:32;15.48;;;3.17;;
70981;SDS011;58640;51.320;9.456;2023-02-03T16:44:16;13.52;;;2.63;;
70981;SDS011;58640;51.320;9.456;2023-02-03T16:47:01;19.38;;;3.25;;
70981;SDS011;58640;51.320;9.456;2023-02-03T16:49:46;20.98;;;3.13;;
70981;SDS011;58640;51.320;9.456;2023-02-03T16:52:30;16.35;;;2.85;;
70981;SDS011;58640;51.320;9.456;2023-02-03T16:54:56;19.40;;;3.72;;
70981;SDS011;58640;51.320;9.456;2023-02-03T16:57:22;22.20;;;3.03;;
70981;SDS011;58640;51.320;9.456;2023-02-03T16:59:47;19.80;;;4.43;;
70981;SDS011;58640;51.320;9.456;2023-02-03T17:02:15;9.40;;;2.30;;
70981;SDS011;58640;51.320;9.456;2023-02-03T17:04:40;19.38;;;2.50;;
70981;SDS011;58640;51.320;9.456;2023-02-03T17:07:06;21.38;;;2.83;;
70981;SDS011;58640;51.320;9.456;2023-02-03T17:09:32;16.30;;;3.53;;
70981;SDS011;58640;51.320;9.456;2023-02-03T17:12:01;15.43;;;2.72;;
70981;SDS011;58640;51.320;9.456;2023-02-03T17:14:27;12.18;;;2.83;;
70981;SDS011;58640;51.320;9.456;2023-02-03T17:16:53;16.10;;;2.65;;
70981;SDS011;58640;51.320;9.456;2023-02-03T17:19:18;15.32;;;2.85;;
70981;SDS011;58640;51.320;9.456;2023-02-03T17:21:43;21.58;;;2.58;;
70981;SDS011;58640;51.320;9.456;2023-02-03T17:24:09;24.27;;;3.88;;
70981;SDS011;58640;51.320;9.456;2023-02-03T17:26:36;22.23;;;3.78;;